createdAt,value
2022-11-20T00:01:22.861Z,-1.13
2022-11-20T00:03:50.058Z,-1.02
2022-11-20T00:06:18.717Z,-1.16
2022-11-20T00:08:46.503Z,-1.08
2022-11-20T00:11:24.557Z,-1.05
2022-11-20T00:13:55.576Z,-1.16
2022-11-20T00:16:25.505Z,-1.46
2022-11-20T00:18:53.353Z,-1.24
2022-11-20T00:21:26.179Z,-1.20
2022-11-20T00:23:55.908Z,-1.41
2022-11-20T00:26:24.466Z,-1.63
2022-11-20T00:28:56.910Z,-1.51
2022-11-20T00:31:24.241Z,-1.37
2022-11-20T00:33:51.570Z,-1.47
2022-11-20T00:36:26.656Z,-1.50
2022-11-20T00:38:55.795Z,-1.23
2022-11-20T00:41:23.529Z,-1.86
2022-11-20T00:43:52.368Z,-1.32
2022-11-20T00:46:21.915Z,-1.37
2022-11-20T00:48:49.276Z,-1.41
2022-11-20T00:51:22.885Z,-1.24
2022-11-20T00:53:50.494Z,-1.23
2022-11-20T00:56:19.738Z,-1.28
2022-11-20T00:58:48.155Z,-1.53
2022-11-20T01:01:18.884Z,-1.20
2022-11-20T01:03:47.620Z,-1.29
2022-11-20T01:06:22.630Z,-1.32
2022-11-20T01:08:51.162Z,-1.21
2022-11-20T01:11:21.483Z,-1.13
2022-11-20T01:13:50.788Z,-1.15
2022-11-20T01:16:19.016Z,-1.06
2022-11-20T01:18:49.325Z,-1.02
2022-11-20T01:21:19.398Z,-1.06
2022-11-20T01:23:46.930Z,-1.19
2022-11-20T01:26:16.513Z,-1.23
2022-11-20T01:28:44.460Z,-1.44
2022-11-20T01:31:13.186Z,-1.44
2022-11-20T01:33:41.166Z,-1.62
2022-11-20T01:36:09.274Z,-1.37
2022-11-20T01:38:36.500Z,-1.30
2022-11-20T01:41:03.414Z,-1.37
2022-11-20T01:43:30.388Z,-1.46
2022-11-20T01:46:19.334Z,-1.50
2022-11-20T01:48:58.433Z,-1.52
2022-11-20T01:51:54.336Z,-1.48
2022-11-20T01:54:39.123Z,-1.69
2022-11-20T01:57:09.245Z,-1.61
2022-11-20T01:59:46.154Z,-1.44
2022-11-20T02:02:13.093Z,-1.42
2022-11-20T02:04:40.016Z,-1.52
2022-11-20T02:07:07.086Z,-1.55
2022-11-20T02:09:34.050Z,-1.55
2022-11-20T02:12:01.862Z,-1.61
2022-11-20T02:14:29.256Z,-1.61
2022-11-20T02:16:56.607Z,-2.17
2022-11-20T02:19:28.407Z,-1.55
2022-11-20T02:22:19.941Z,-1.55
2022-11-20T02:24:48.984Z,-1.70
2022-11-20T02:27:17.937Z,-1.51
2022-11-20T02:29:53.573Z,-1.58
2022-11-20T02:32:22.020Z,-1.54
2022-11-20T02:34:49.150Z,-1.62
2022-11-20T02:37:17.578Z,-1.55
2022-11-20T02:39:46.993Z,-1.54
2022-11-20T02:42:13.870Z,-1.52
2022-11-20T02:44:41.094Z,-1.52
2022-11-20T02:47:08.374Z,-1.44
2022-11-20T02:49:35.288Z,-1.63
2022-11-20T02:52:02.462Z,-1.56
2022-11-20T02:54:29.403Z,-1.53
2022-11-20T02:56:56.284Z,-1.44
2022-11-20T02:59:23.538Z,-1.47
2022-11-20T03:01:50.688Z,-1.47
2022-11-20T03:04:17.676Z,-1.38
2022-11-20T03:06:44.691Z,-1.42
2022-11-20T03:09:11.588Z,-1.53
2022-11-20T03:11:38.450Z,-1.70
2022-11-20T03:14:06.812Z,-1.61
2022-11-20T03:16:33.904Z,-1.59
2022-11-20T03:19:01.119Z,-1.59
2022-11-20T03:21:28.495Z,-1.60
2022-11-20T03:23:55.851Z,-1.78
2022-11-20T03:26:26.262Z,-1.55
2022-11-20T03:28:55.990Z,-1.49
2022-11-20T03:31:31.379Z,-1.44
2022-11-20T03:33:59.812Z,-1.43
2022-11-20T03:36:27.615Z,-1.41
2022-11-20T03:38:56.110Z,-1.50
2022-11-20T03:41:28.888Z,-1.40
2022-11-20T03:44:00.978Z,-1.40
2022-11-20T03:46:29.496Z,-1.41
2022-11-20T03:48:57.216Z,-1.73
2022-11-20T03:51:25.265Z,-1.61
2022-11-20T03:53:54.649Z,-1.69
2022-11-20T03:56:25.249Z,-1.63
2022-11-20T03:58:52.464Z,-1.63
2022-11-20T04:01:22.040Z,-1.62
2022-11-20T04:03:50.033Z,-1.55
2022-11-20T04:06:22.642Z,-1.55
2022-11-20T04:08:53.851Z,-1.51
2022-11-20T04:11:23.970Z,-1.48
2022-11-20T04:14:02.507Z,-1.66
2022-11-20T04:16:35.639Z,-1.45
2022-11-20T04:19:05.676Z,-1.45
2022-11-20T04:21:32.938Z,-1.57
2022-11-20T04:24:00.031Z,-2.04
2022-11-20T04:26:28.886Z,-1.50
2022-11-20T04:28:56.355Z,-1.58
2022-11-20T04:31:25.728Z,-1.57
2022-11-20T04:33:52.870Z,-1.54
2022-11-20T04:36:25.370Z,-1.46
2022-11-20T04:38:57.530Z,-1.46
2022-11-20T04:41:27.178Z,-1.56
2022-11-20T04:44:00.461Z,-2.03
2022-11-20T04:46:28.591Z,-1.33
2022-11-20T04:48:55.921Z,-1.36
2022-11-20T04:51:23.029Z,-1.34
2022-11-20T04:53:49.930Z,-1.31
2022-11-20T04:56:17.193Z,-1.34
2022-11-20T04:58:44.351Z,-1.46
2022-11-20T05:01:19.161Z,-1.41
2022-11-20T05:03:46.919Z,-1.35
2022-11-20T05:06:16.403Z,-1.52
2022-11-20T05:08:43.725Z,-1.34
2022-11-20T05:11:13.848Z,-1.36
2022-11-20T05:13:41.123Z,-1.48
2022-11-20T05:16:13.697Z,-1.38
2022-11-20T05:18:41.865Z,-1.47
2022-11-20T05:21:10.284Z,-1.45
2022-11-20T05:23:37.725Z,-1.37
2022-11-20T05:26:05.937Z,-1.29
2022-11-20T05:28:33.678Z,-1.24
2022-11-20T05:31:13.417Z,-1.22
2022-11-20T05:33:44.567Z,-1.12
2022-11-20T05:36:13.323Z,-1.16
2022-11-20T05:38:40.758Z,-1.32
2022-11-20T05:41:12.477Z,-1.30
2022-11-20T05:43:41.471Z,-1.35
2022-11-20T05:46:10.139Z,-1.29
2022-11-20T05:48:38.454Z,-1.24
2022-11-20T05:51:07.608Z,-1.19
2022-11-20T05:53:36.259Z,-1.31
2022-11-20T05:56:07.879Z,-1.11
2022-11-20T05:58:35.058Z,-1.31
2022-11-20T06:01:09.527Z,-0.93
2022-11-20T06:03:36.975Z,-1.07
2022-11-20T06:06:05.579Z,-1.18
2022-11-20T06:08:33.270Z,-1.16
2022-11-20T06:11:05.070Z,-1.25
2022-11-20T06:13:32.539Z,-1.16
2022-11-20T06:15:59.779Z,-1.26
2022-11-20T06:18:29.460Z,-1.14
2022-11-20T06:21:05.496Z,-1.27
2022-11-20T06:23:34.033Z,-1.33
2022-11-20T06:26:13.229Z,-1.50
2022-11-20T06:28:40.683Z,-1.11
2022-11-20T06:31:08.520Z,-1.05
2022-11-20T06:33:35.435Z,-1.15
2022-11-20T06:36:08.905Z,-1.20
2022-11-20T06:38:37.841Z,-1.03
2022-11-20T06:41:06.572Z,-0.99
2022-11-20T06:43:33.494Z,-0.95
2022-11-20T06:46:00.741Z,-1.18
2022-11-20T06:48:28.744Z,-0.97
2022-11-20T06:50:55.726Z,-0.95
2022-11-20T06:53:23.183Z,-0.91
2022-11-20T06:55:51.146Z,-0.87
2022-11-20T06:58:19.238Z,-0.90
2022-11-20T07:00:46.312Z,-1.07
2022-11-20T07:03:14.324Z,-1.23
2022-11-20T07:05:41.418Z,-1.13
2022-11-20T07:08:09.047Z,-0.80
2022-11-20T07:10:36.156Z,-0.81
2022-11-20T07:13:03.033Z,-0.92
2022-11-20T07:15:30.693Z,-0.92
2022-11-20T07:18:00.928Z,-0.97
2022-11-20T07:20:28.105Z,-1.05
2022-11-20T07:22:58.884Z,-1.01
2022-11-20T07:25:27.433Z,-0.92
2022-11-20T07:27:58.125Z,-1.00
2022-11-20T07:30:25.129Z,-1.19
2022-11-20T07:32:52.628Z,-1.06
2022-11-20T07:35:19.990Z,-0.91
2022-11-20T07:37:48.292Z,-0.82
2022-11-20T07:40:16.236Z,-0.96
2022-11-20T07:42:53.261Z,-0.88
2022-11-20T07:45:20.683Z,-0.97
2022-11-20T07:47:47.734Z,-1.01
2022-11-20T07:50:15.078Z,-1.11
2022-11-20T07:52:42.238Z,-0.98
2022-11-20T07:55:11.350Z,-0.77
2022-11-20T07:57:40.212Z,-1.45
2022-11-20T08:00:12.812Z,-0.80
2022-11-20T08:02:41.059Z,-0.62
2022-11-20T08:05:09.488Z,-0.83
2022-11-20T08:07:41.647Z,-0.66
2022-11-20T08:10:11.232Z,-0.77
2022-11-20T08:13:09.213Z,-0.92
2022-11-20T08:15:37.200Z,-0.85
2022-11-20T08:21:03.633Z,-0.83
2022-11-20T08:23:31.293Z,-1.33
2022-11-20T08:25:58.516Z,-0.58
2022-11-20T08:28:25.372Z,-0.63
2022-11-20T08:30:52.303Z,-0.76
2022-11-20T08:33:19.755Z,-0.62
2022-11-20T08:35:46.955Z,-0.53
2022-11-20T08:38:13.945Z,-0.73
2022-11-20T08:40:40.816Z,-0.63
2022-11-20T08:43:07.693Z,-0.56
2022-11-20T08:45:35.575Z,-0.52
2022-11-20T08:48:04.322Z,-0.78
2022-11-20T08:50:34.955Z,-0.54
2022-11-20T08:53:06.040Z,-0.43
2022-11-20T08:55:33.749Z,-0.42
2022-11-20T08:58:05.280Z,-0.46
2022-11-20T09:00:33.574Z,-0.43
2022-11-20T09:03:02.189Z,-0.53
2022-11-20T09:05:29.689Z,-0.51
2022-11-20T09:08:00.582Z,-0.53
2022-11-20T09:10:28.721Z,-0.52
2022-11-20T09:12:56.430Z,-0.39
2022-11-20T09:15:25.212Z,-0.50
2022-11-20T09:17:53.467Z,-0.30
2022-11-20T09:20:20.601Z,-0.38
2022-11-20T09:22:47.610Z,-0.44
2022-11-20T09:25:14.490Z,-0.53
2022-11-20T09:27:44.708Z,-0.29
2022-11-20T09:30:12.923Z,-0.40
2022-11-20T09:32:40.853Z,-0.24
2022-11-20T09:35:08.197Z,-0.10
2022-11-20T09:37:35.110Z,0.02
2022-11-20T09:40:02.159Z,-0.02
2022-11-20T09:42:32.953Z,0.11
2022-11-20T09:45:02.879Z,0.19
2022-11-20T09:48:05.545Z,0.17
2022-11-20T09:50:56.401Z,0.09
2022-11-20T09:53:37.884Z,-0.31
2022-11-20T09:56:06.104Z,0.04
2022-11-20T09:58:40.727Z,-0.01
2022-11-20T10:01:17.737Z,0.04
2022-11-20T10:03:54.018Z,-0.12
2022-11-20T10:06:35.438Z,-0.03
2022-11-20T10:09:36.746Z,0.07
2022-11-20T10:12:12.773Z,0.10
2022-11-20T10:14:39.597Z,0.20
2022-11-20T10:17:44.126Z,0.30
2022-11-20T10:20:30.940Z,0.18
2022-11-20T10:23:13.302Z,0.07
2022-11-20T10:25:47.037Z,0.04
2022-11-20T10:28:23.011Z,0.17
2022-11-20T10:31:05.409Z,0.25
2022-11-20T10:34:11.199Z,0.18
2022-11-20T10:36:43.898Z,0.07
2022-11-20T10:39:22.161Z,0.05
2022-11-20T10:41:53.662Z,0.05
2022-11-20T10:44:43.111Z,-0.22
2022-11-20T10:47:22.658Z,-0.25
2022-11-20T10:49:54.282Z,-0.25
2022-11-20T10:52:48.158Z,-0.08
2022-11-20T10:55:34.129Z,-0.34
2022-11-20T10:58:22.347Z,-0.22
2022-11-20T11:00:49.391Z,-0.20
2022-11-20T11:03:28.369Z,-0.22
2022-11-20T11:06:04.546Z,-0.48
2022-11-20T11:08:38.423Z,-0.31
2022-11-20T11:11:25.025Z,-0.26
2022-11-20T11:13:52.586Z,-0.38
2022-11-20T11:16:25.578Z,-0.38
2022-11-20T11:18:53.361Z,-0.31
2022-11-20T11:21:27.694Z,-0.48
2022-11-20T11:24:27.037Z,-0.39
2022-11-20T11:27:06.602Z,-0.43
2022-11-20T11:29:34.934Z,-0.49
2022-11-20T11:32:23.220Z,-0.51
2022-11-20T11:35:04.089Z,-0.37
2022-11-20T11:37:39.691Z,-0.36
2022-11-20T11:40:27.318Z,-0.40
2022-11-20T11:42:59.766Z,-0.53
2022-11-20T11:45:27.226Z,-0.48
2022-11-20T11:47:56.881Z,-0.40
2022-11-20T11:50:26.158Z,-0.37
2022-11-20T11:53:19.260Z,-0.35
2022-11-20T11:55:57.772Z,-0.42
2022-11-20T11:58:53.301Z,-0.36
2022-11-20T12:01:30.297Z,-0.45
2022-11-20T12:04:07.136Z,-0.54
2022-11-20T12:06:37.827Z,-0.44
2022-11-20T12:09:09.267Z,-0.53
2022-11-20T12:12:31.699Z,-0.37
2022-11-20T12:14:59.628Z,-0.51
2022-11-20T12:17:26.643Z,-0.45
2022-11-20T12:19:54.816Z,-0.50
2022-11-20T12:22:33.020Z,-0.54
2022-11-20T12:25:15.719Z,-0.61
2022-11-20T12:28:06.935Z,-0.51
2022-11-20T12:30:40.927Z,-0.68
2022-11-20T12:33:33.827Z,-0.60
2022-11-20T12:36:18.832Z,-0.61
2022-11-20T12:39:33.424Z,-0.63
2022-11-20T12:42:47.602Z,-0.60
2022-11-20T12:45:33.033Z,-0.70
2022-11-20T12:48:25.524Z,-0.62
2022-11-20T12:51:19.686Z,-0.62
2022-11-20T12:53:52.815Z,-0.62
2022-11-20T12:56:27.515Z,-0.66
2022-11-20T12:59:22.735Z,-0.72
2022-11-20T13:01:57.039Z,-0.69
2022-11-20T13:04:37.319Z,-0.67
2022-11-20T13:07:09.042Z,-0.69
2022-11-20T13:09:41.130Z,-0.80
2022-11-20T13:12:17.719Z,-0.73
2022-11-20T13:14:59.308Z,-0.89
2022-11-20T13:17:33.070Z,-0.76
2022-11-20T13:20:00.779Z,-0.76
2022-11-20T13:22:45.048Z,-0.85
2022-11-20T13:25:33.682Z,-0.66
2022-11-20T13:28:04.693Z,-0.70
2022-11-20T13:30:32.839Z,-0.67
2022-11-20T13:33:24.338Z,-0.55
2022-11-20T13:36:03.444Z,-0.56
2022-11-20T13:38:48.621Z,-0.60
2022-11-20T13:41:54.618Z,-0.50
2022-11-20T13:44:24.805Z,-0.52
2022-11-20T13:46:52.255Z,-0.62
2022-11-20T13:49:28.352Z,-0.65
2022-11-20T13:52:19.410Z,-0.51
2022-11-20T13:55:23.450Z,-0.48
2022-11-20T13:58:16.901Z,-0.50
2022-11-20T14:00:48.330Z,-0.45
2022-11-20T14:04:04.105Z,-0.42
2022-11-20T14:06:44.290Z,-0.52
2022-11-20T14:09:33.017Z,-0.47
2022-11-20T14:12:00.412Z,-0.49
2022-11-20T14:14:29.949Z,-0.51
2022-11-20T14:17:33.659Z,-0.49
2022-11-20T14:20:04.994Z,-0.66
2022-11-20T14:22:32.111Z,-0.56
2022-11-20T14:25:07.621Z,-0.51
2022-11-20T14:27:38.070Z,-0.56
2022-11-20T14:30:06.072Z,-0.59
2022-11-20T14:32:36.077Z,-0.61
2022-11-20T14:35:27.705Z,-0.56
2022-11-20T14:37:55.973Z,-0.61
2022-11-20T14:40:23.132Z,-0.63
2022-11-20T14:42:50.035Z,-0.63
2022-11-20T14:45:18.335Z,-0.67
2022-11-20T14:47:46.131Z,-0.67
2022-11-20T14:50:25.857Z,-0.61
2022-11-20T14:52:58.441Z,-0.62
2022-11-20T14:55:33.384Z,-0.57
2022-11-20T14:58:03.634Z,-0.58
2022-11-20T15:00:32.582Z,-0.58
2022-11-20T15:02:59.920Z,-0.53
2022-11-20T15:05:48.497Z,-0.52
2022-11-20T15:08:17.293Z,-0.54
2022-11-20T15:10:49.635Z,-0.74
2022-11-20T15:13:32.352Z,-0.50
2022-11-20T15:16:02.050Z,-0.60
2022-11-20T15:18:42.748Z,-0.48
2022-11-20T15:21:18.201Z,-0.54
2022-11-20T15:23:45.372Z,-0.58
2022-11-20T15:26:19.535Z,-0.49
2022-11-20T15:28:48.937Z,-0.48
2022-11-20T15:31:19.477Z,-0.52
2022-11-20T15:33:48.259Z,-0.50
2022-11-20T15:36:15.164Z,-0.50
2022-11-20T15:38:42.356Z,-0.65
2022-11-20T15:41:09.691Z,-0.62
2022-11-20T15:43:36.679Z,-0.53
2022-11-20T15:46:16.349Z,-0.54
2022-11-20T15:48:48.246Z,-0.60
2022-11-20T15:51:17.916Z,-0.52
2022-11-20T15:53:44.973Z,-0.49
2022-11-20T15:56:15.759Z,-0.60
2022-11-20T15:58:43.231Z,-0.56
2022-11-20T16:01:15.669Z,-0.50
2022-11-20T16:03:42.847Z,-0.48
2022-11-20T16:06:09.908Z,-0.59
2022-11-20T16:08:36.970Z,-1.00
2022-11-20T16:11:04.244Z,-0.65
2022-11-20T16:13:51.219Z,-0.60
2022-11-20T16:16:23.236Z,-0.54
2022-11-20T16:18:51.349Z,-0.58
2022-11-20T16:21:18.663Z,-0.70
2022-11-20T16:23:45.738Z,-0.47
2022-11-20T16:26:21.700Z,-0.40
2022-11-20T16:28:48.602Z,-0.32
2022-11-20T16:31:19.225Z,-0.31
2022-11-20T16:34:01.139Z,-0.33
2022-11-20T16:36:29.616Z,-0.45
2022-11-20T16:39:01.842Z,-0.39
2022-11-20T16:41:32.189Z,-0.45
2022-11-20T16:44:01.802Z,-0.44
2022-11-20T16:46:32.999Z,-0.48
2022-11-20T16:49:02.458Z,-0.46
2022-11-20T16:51:31.358Z,-0.54
2022-11-20T16:54:01.706Z,-0.45
2022-11-20T16:56:28.885Z,-0.44
2022-11-20T16:58:58.077Z,-0.43
2022-11-20T17:01:28.645Z,-0.62
2022-11-20T17:03:57.317Z,-0.65
2022-11-20T17:06:27.746Z,-0.43
2022-11-20T17:08:56.203Z,-0.40
2022-11-20T17:11:23.479Z,-0.39
2022-11-20T17:13:51.940Z,-0.29
2022-11-20T17:16:21.607Z,-0.49
2022-11-20T17:18:50.245Z,-0.16
2022-11-20T17:21:18.448Z,-0.35
2022-11-20T17:23:46.618Z,-0.58
2022-11-20T17:26:17.778Z,-0.29
2022-11-20T17:28:46.474Z,-0.19
2022-11-20T17:31:17.577Z,-0.43
2022-11-20T17:33:46.672Z,-0.29
2022-11-20T17:36:16.098Z,-0.25
2022-11-20T17:38:45.229Z,-0.32
2022-11-20T17:41:14.356Z,-0.31
2022-11-20T17:43:42.876Z,-0.33
2022-11-20T17:46:15.442Z,-0.34
2022-11-20T17:48:44.357Z,-0.34
2022-11-20T17:51:14.120Z,-0.43
2022-11-20T17:53:43.652Z,-0.42
2022-11-20T17:56:29.669Z,-0.38
2022-11-20T17:58:56.704Z,-0.42
2022-11-20T18:01:24.194Z,-0.33
2022-11-20T18:03:51.930Z,-0.39
2022-11-20T18:06:22.437Z,-0.30
2022-11-20T18:08:50.481Z,-0.38
2022-11-20T18:11:20.641Z,-0.29
2022-11-20T18:14:08.712Z,-0.27
2022-11-20T18:16:44.345Z,-0.23
2022-11-20T18:19:14.358Z,-0.24
2022-11-20T18:21:41.967Z,-0.30
2022-11-20T18:24:09.753Z,-0.24
2022-11-20T18:26:42.800Z,-0.30
2022-11-20T18:29:12.808Z,-0.59
2022-11-20T18:31:40.437Z,-0.40
2022-11-20T18:34:11.601Z,-0.38
2022-11-20T18:36:39.062Z,-0.44
2022-11-20T18:39:06.070Z,-0.52
2022-11-20T18:41:51.844Z,-0.54
2022-11-20T18:44:40.651Z,-0.66
2022-11-20T18:47:14.705Z,-0.61
2022-11-20T18:49:43.374Z,-0.51
2022-11-20T18:52:10.340Z,-1.03
2022-11-20T18:54:37.243Z,-0.50
2022-11-20T18:57:05.366Z,-0.51
2022-11-20T18:59:32.689Z,-0.48
2022-11-20T19:01:59.985Z,-0.52
2022-11-20T19:04:27.748Z,-0.39
2022-11-20T19:06:56.390Z,-0.41
2022-11-20T19:09:24.257Z,-0.50
2022-11-20T19:11:51.727Z,-0.58
2022-11-20T19:14:18.876Z,-0.50
2022-11-20T19:16:46.372Z,-0.52
2022-11-20T19:19:14.498Z,-0.51
2022-11-20T19:21:42.325Z,-0.57
2022-11-20T19:24:09.850Z,-0.61
2022-11-20T19:26:37.771Z,-0.77
2022-11-20T19:29:05.694Z,-0.69
2022-11-20T19:31:33.131Z,-0.62
2022-11-20T19:34:02.262Z,-0.65
2022-11-20T19:36:43.127Z,-0.59
2022-11-20T19:39:12.154Z,-0.56
2022-11-20T19:41:41.367Z,-0.61
2022-11-20T19:44:11.400Z,-0.61
2022-11-20T19:46:39.485Z,-0.71
2022-11-20T19:49:10.254Z,-0.62
2022-11-20T19:51:39.467Z,-0.78
2022-11-20T19:54:07.001Z,-0.59
2022-11-20T19:56:34.320Z,-0.54
2022-11-20T19:59:01.764Z,-0.52
2022-11-20T20:01:32.176Z,-0.72
2022-11-20T20:04:05.537Z,-0.89
2022-11-20T20:06:35.188Z,-0.73
2022-11-20T20:09:07.795Z,-0.91
2022-11-20T20:11:35.884Z,-0.80
2022-11-20T20:14:08.722Z,-0.73
2022-11-20T20:16:36.643Z,-0.75
2022-11-20T20:19:05.034Z,-0.75
2022-11-20T20:21:34.249Z,-0.88
2022-11-20T20:24:01.775Z,-0.85
2022-11-20T20:26:30.603Z,-1.41
2022-11-20T20:28:57.755Z,-0.92
2022-11-20T20:31:27.441Z,-0.86
2022-11-20T20:33:54.842Z,-0.85
2022-11-20T20:36:23.727Z,-0.60
2022-11-20T20:39:02.980Z,-0.59
2022-11-20T20:41:30.412Z,-0.64
2022-11-20T20:44:16.098Z,-0.66
2022-11-20T20:46:43.943Z,-0.65
2022-11-20T20:49:10.945Z,-0.73
2022-11-20T20:51:38.080Z,-0.75
2022-11-20T20:54:05.430Z,-0.79
2022-11-20T20:56:32.576Z,-1.02
2022-11-20T20:58:59.437Z,-0.95
2022-11-20T21:01:28.889Z,-0.75
2022-11-20T21:03:56.854Z,-0.83
2022-11-20T21:06:24.001Z,-0.75
2022-11-20T21:08:51.293Z,-0.78
2022-11-20T21:11:20.191Z,-0.79
2022-11-20T21:13:48.477Z,-0.96
2022-11-20T21:16:17.428Z,-0.87
2022-11-20T21:18:44.598Z,-0.86
2022-11-20T21:21:34.669Z,-0.90
2022-11-20T21:24:02.301Z,-1.02
2022-11-20T21:26:29.295Z,-0.92
2022-11-20T21:28:57.524Z,-0.84
2022-11-20T21:31:26.583Z,-0.91
2022-11-20T21:33:55.328Z,-0.89
2022-11-20T21:36:25.370Z,-1.06
2022-11-20T21:38:54.724Z,-1.34
2022-11-20T21:41:22.505Z,-0.89
2022-11-20T21:44:15.967Z,-1.22
2022-11-20T21:46:40.836Z,-0.95
2022-11-20T21:49:07.961Z,-0.97
2022-11-20T21:51:35.131Z,-1.43
2022-11-20T21:54:02.240Z,-1.11
2022-11-20T21:56:29.156Z,-1.00
2022-11-20T21:58:56.174Z,-1.09
2022-11-20T22:01:30.779Z,-1.03
2022-11-20T22:04:02.590Z,-1.02
2022-11-20T22:06:34.447Z,-0.98
2022-11-20T22:09:02.500Z,-1.07
2022-11-20T22:11:29.514Z,-1.03
2022-11-20T22:14:14.972Z,-1.20
2022-11-20T22:16:42.038Z,-1.18
2022-11-20T22:19:09.290Z,-1.06
2022-11-20T22:21:39.934Z,-1.67
2022-11-20T22:24:06.985Z,-1.04
2022-11-20T22:26:39.998Z,-1.45
2022-11-20T22:29:08.290Z,-1.15
2022-11-20T22:31:35.161Z,-1.09
2022-11-20T22:34:02.963Z,-1.12
2022-11-20T22:36:31.820Z,-1.14
2022-11-20T22:39:02.141Z,-1.49
2022-11-20T22:41:29.473Z,-1.19
2022-11-20T22:43:58.751Z,-1.17
2022-11-20T22:46:27.320Z,-1.12
2022-11-20T22:48:55.141Z,-1.12
2022-11-20T22:51:24.264Z,-1.09
2022-11-20T22:53:51.612Z,-1.18
2022-11-20T22:56:19.616Z,-1.11
2022-11-20T22:58:49.106Z,-1.22
2022-11-20T23:01:24.740Z,-1.11
2022-11-20T23:03:55.430Z,-1.16
2022-11-20T23:06:22.967Z,-1.17
2022-11-20T23:08:50.653Z,-1.36
2022-11-20T23:11:26.338Z,-1.13
2022-11-20T23:14:01.423Z,-1.15
2022-11-20T23:16:30.589Z,-1.18
2022-11-20T23:19:03.790Z,-1.21
2022-11-20T23:21:31.023Z,-1.25
2022-11-20T23:23:58.856Z,-1.97
2022-11-20T23:26:31.635Z,-1.19
2022-11-20T23:28:59.826Z,-1.22
2022-11-20T23:31:28.803Z,-1.24
2022-11-20T23:33:56.061Z,-1.27
2022-11-20T23:36:23.329Z,-1.34
2022-11-20T23:38:50.477Z,-1.28
2022-11-20T23:41:17.589Z,-1.37
2022-11-20T23:43:44.499Z,-1.38
2022-11-20T23:46:15.248Z,-1.36
2022-11-20T23:48:44.981Z,-1.31
2022-11-20T23:51:13.261Z,-1.35
2022-11-20T23:53:40.136Z,-1.74
2022-11-20T23:56:07.437Z,-1.30
2022-11-20T23:58:37.077Z,-1.28
